sensor_id;sensor_type;location;lat;lon;timestamp;temperature;humidity
2839;DHT22;1427;48.510;9.060;2023-08-21T00:00:00;23.40;99.90
2839;DHT22;1427;48.510;9.060;2023-08-21T00:02:30;23.50;99.90
2839;DHT22;1427;48.510;9.060;2023-08-21T00:04:58;23.40;99.90
2839;DHT22;1427;48.510;9.060;2023-08-21T00:07:26;23.20;99.90
2839;DHT22;1427;48.510;9.060;2023-08-21T00:09:54;23.20;99.90
2839;DHT22;1427;48.510;9.060;2023-08-21T00:12:22;23.20;99.90
2839;DHT22;1427;48.510;9.060;2023-08-21T00:14:50;23.30;99.90
2839;DHT22;1427;48.510;9.060;2023-08-21T00:17:18;23.30;99.90
2839;DHT22;1427;48.510;9.060;2023-08-21T00:19:47;23.30;99.90
2839;DHT22;1427;48.510;9.060;2023-08-21T00:22:15;23.40;99.90
2839;DHT22;1427;48.510;9.060;2023-08-21T00:24:43;23.30;99.90
2839;DHT22;1427;48.510;9.060;2023-08-21T00:27:11;23.30;99.90
2839;DHT22;1427;48.510;9.060;2023-08-21T00:29:39;23.30;99.90
2839;DHT22;1427;48.510;9.060;2023-08-21T00:32:07;23.30;99.90
2839;DHT22;1427;48.510;9.060;2023-08-21T00:34:35;23.20;99.90
2839;DHT22;1427;48.510;9.060;2023-08-21T00:37:05;23.30;99.90
2839;DHT22;1427;48.510;9.060;2023-08-21T00:39:33;23.20;99.90
2839;DHT22;1427;48.510;9.060;2023-08-21T00:42:01;23.20;99.90
2839;DHT22;1427;48.510;9.060;2023-08-21T00:44:29;23.20;99.90
2839;DHT22;1427;48.510;9.060;2023-08-21T00:46:57;23.20;99.90
2839;DHT22;1427;48.510;9.060;2023-08-21T00:49:25;23.20;99.90
2839;DHT22;1427;48.510;9.060;2023-08-21T00:51:54;23.20;99.90
2839;DHT22;1427;48.510;9.060;2023-08-21T00:54:24;23.00;99.90
2839;DHT22;1427;48.510;9.060;2023-08-21T00:56:52;23.10;99.90
2839;DHT22;1427;48.510;9.060;2023-08-21T00:59:21;22.90;99.90
2839;DHT22;1427;48.510;9.060;2023-08-21T01:01:50;22.90;99.90
2839;DHT22;1427;48.510;9.060;2023-08-21T01:04:18;22.90;99.90
2839;DHT22;1427;48.510;9.060;2023-08-21T01:06:46;22.90;99.90
2839;DHT22;1427;48.510;9.060;2023-08-21T01:09:17;22.90;99.90
2839;DHT22;1427;48.510;9.060;2023-08-21T01:11:56;22.90;99.90
2839;DHT22;1427;48.510;9.060;2023-08-21T01:14:29;22.90;99.90
2839;DHT22;1427;48.510;9.060;2023-08-21T01:17:00;22.90;99.90
2839;DHT22;1427;48.510;9.060;2023-08-21T01:19:35;22.80;99.90
2839;DHT22;1427;48.510;9.060;2023-08-21T01:22:04;23.00;99.90
2839;DHT22;1427;48.510;9.060;2023-08-21T01:24:33;22.80;99.90
2839;DHT22;1427;48.510;9.060;2023-08-21T01:27:01;22.90;99.90
2839;DHT22;1427;48.510;9.060;2023-08-21T01:29:30;22.90;99.90
2839;DHT22;1427;48.510;9.060;2023-08-21T01:32:04;22.90;99.90
2839;DHT22;1427;48.510;9.060;2023-08-21T01:34:34;22.90;99.90
2839;DHT22;1427;48.510;9.060;2023-08-21T01:37:03;22.80;99.90
2839;DHT22;1427;48.510;9.060;2023-08-21T01:39:33;22.80;99.90
2839;DHT22;1427;48.510;9.060;2023-08-21T01:42:03;22.70;99.90
2839;DHT22;1427;48.510;9.060;2023-08-21T01:44:32;22.70;99.90
2839;DHT22;1427;48.510;9.060;2023-08-21T01:47:00;22.70;99.90
2839;DHT22;1427;48.510;9.060;2023-08-21T01:49:28;22.80;99.90
2839;DHT22;1427;48.510;9.060;2023-08-21T01:51:56;22.90;99.90
2839;DHT22;1427;48.510;9.060;2023-08-21T01:54:24;22.90;99.90
2839;DHT22;1427;48.510;9.060;2023-08-21T01:56:53;22.90;99.90
2839;DHT22;1427;48.510;9.060;2023-08-21T01:59:21;22.90;99.90
2839;DHT22;1427;48.510;9.060;2023-08-21T02:01:49;22.90;99.90
2839;DHT22;1427;48.510;9.060;2023-08-21T02:04:17;22.80;99.90
2839;DHT22;1427;48.510;9.060;2023-08-21T02:06:45;22.80;99.90
2839;DHT22;1427;48.510;9.060;2023-08-21T02:09:13;22.80;99.90
2839;DHT22;1427;48.510;9.060;2023-08-21T02:11:41;22.80;99.90
2839;DHT22;1427;48.510;9.060;2023-08-21T02:14:11;22.80;99.90
2839;DHT22;1427;48.510;9.060;2023-08-21T02:16:39;22.90;99.90
2839;DHT22;1427;48.510;9.060;2023-08-21T02:19:07;22.90;99.90
2839;DHT22;1427;48.510;9.060;2023-08-21T02:21:35;22.80;99.90
2839;DHT22;1427;48.510;9.060;2023-08-21T02:24:04;22.60;99.90
2839;DHT22;1427;48.510;9.060;2023-08-21T02:26:32;22.50;99.90
2839;DHT22;1427;48.510;9.060;2023-08-21T02:29:00;22.40;99.90
2839;DHT22;1427;48.510;9.060;2023-08-21T02:31:29;22.30;99.90
2839;DHT22;1427;48.510;9.060;2023-08-21T02:33:57;22.50;99.90
2839;DHT22;1427;48.510;9.060;2023-08-21T02:36:25;22.40;99.90
2839;DHT22;1427;48.510;9.060;2023-08-21T02:38:55;22.20;99.90
2839;DHT22;1427;48.510;9.060;2023-08-21T02:41:23;22.10;99.90
2839;DHT22;1427;48.510;9.060;2023-08-21T02:43:51;22.10;99.90
2839;DHT22;1427;48.510;9.060;2023-08-21T02:46:19;22.10;99.90
2839;DHT22;1427;48.510;9.060;2023-08-21T02:48:49;22.10;99.90
2839;DHT22;1427;48.510;9.060;2023-08-21T02:51:17;22.10;99.90
2839;DHT22;1427;48.510;9.060;2023-08-21T02:53:45;22.00;99.90
2839;DHT22;1427;48.510;9.060;2023-08-21T02:56:13;22.00;99.90
2839;DHT22;1427;48.510;9.060;2023-08-21T02:58:41;21.90;99.90
2839;DHT22;1427;48.510;9.060;2023-08-21T03:01:09;22.00;99.90
2839;DHT22;1427;48.510;9.060;2023-08-21T03:03:37;22.10;99.90
2839;DHT22;1427;48.510;9.060;2023-08-21T03:06:06;22.00;99.90
2839;DHT22;1427;48.510;9.060;2023-08-21T03:08:34;22.00;99.90
2839;DHT22;1427;48.510;9.060;2023-08-21T03:11:03;21.80;99.90
2839;DHT22;1427;48.510;9.060;2023-08-21T03:13:31;21.80;99.90
2839;DHT22;1427;48.510;9.060;2023-08-21T03:15:59;21.90;99.90
2839;DHT22;1427;48.510;9.060;2023-08-21T03:18:31;21.80;99.90
2839;DHT22;1427;48.510;9.060;2023-08-21T03:20:59;21.80;99.90
2839;DHT22;1427;48.510;9.060;2023-08-21T03:23:29;21.70;99.90
2839;DHT22;1427;48.510;9.060;2023-08-21T03:25:57;21.60;99.90
2839;DHT22;1427;48.510;9.060;2023-08-21T03:28:24;21.70;99.90
2839;DHT22;1427;48.510;9.060;2023-08-21T03:30:53;21.60;99.90
2839;DHT22;1427;48.510;9.060;2023-08-21T03:33:21;21.60;99.90
2839;DHT22;1427;48.510;9.060;2023-08-21T03:35:53;21.60;99.90
2839;DHT22;1427;48.510;9.060;2023-08-21T03:38:21;21.60;99.90
2839;DHT22;1427;48.510;9.060;2023-08-21T03:40:51;21.80;99.90
2839;DHT22;1427;48.510;9.060;2023-08-21T03:43:19;21.60;99.90
2839;DHT22;1427;48.510;9.060;2023-08-21T03:45:47;21.60;99.90
2839;DHT22;1427;48.510;9.060;2023-08-21T03:48:15;21.60;99.90
2839;DHT22;1427;48.510;9.060;2023-08-21T03:50:43;21.60;99.90
2839;DHT22;1427;48.510;9.060;2023-08-21T03:53:11;21.40;99.90
2839;DHT22;1427;48.510;9.060;2023-08-21T03:55:39;21.60;99.90
2839;DHT22;1427;48.510;9.060;2023-08-21T03:58:08;21.60;99.90
2839;DHT22;1427;48.510;9.060;2023-08-21T04:00:36;21.60;99.90
2839;DHT22;1427;48.510;9.060;2023-08-21T04:03:04;21.70;99.90
2839;DHT22;1427;48.510;9.060;2023-08-21T04:05:32;21.70;99.90
2839;DHT22;1427;48.510;9.060;2023-08-21T04:08:00;21.60;99.90
2839;DHT22;1427;48.510;9.060;2023-08-21T04:10:29;21.50;99.90
2839;DHT22;1427;48.510;9.060;2023-08-21T04:12:56;21.50;99.90
2839;DHT22;1427;48.510;9.060;2023-08-21T04:15:27;21.40;99.90
2839;DHT22;1427;48.510;9.060;2023-08-21T04:17:56;21.50;99.90
2839;DHT22;1427;48.510;9.060;2023-08-21T04:20:24;21.40;99.90
2839;DHT22;1427;48.510;9.060;2023-08-21T04:22:52;21.60;99.90
2839;DHT22;1427;48.510;9.060;2023-08-21T04:25:20;21.50;99.90
2839;DHT22;1427;48.510;9.060;2023-08-21T04:27:48;21.60;99.90
2839;DHT22;1427;48.510;9.060;2023-08-21T04:30:16;21.70;99.90
2839;DHT22;1427;48.510;9.060;2023-08-21T04:32:46;21.70;99.90
2839;DHT22;1427;48.510;9.060;2023-08-21T04:35:14;21.80;99.90
2839;DHT22;1427;48.510;9.060;2023-08-21T04:37:45;21.80;99.90
2839;DHT22;1427;48.510;9.060;2023-08-21T04:40:14;21.80;99.90
2839;DHT22;1427;48.510;9.060;2023-08-21T04:42:44;21.80;99.90
2839;DHT22;1427;48.510;9.060;2023-08-21T04:45:12;21.80;99.90
2839;DHT22;1427;48.510;9.060;2023-08-21T04:47:40;21.90;99.90
2839;DHT22;1427;48.510;9.060;2023-08-21T04:50:11;21.80;99.90
2839;DHT22;1427;48.510;9.060;2023-08-21T04:52:40;21.80;99.90
2839;DHT22;1427;48.510;9.060;2023-08-21T04:55:08;21.70;99.90
2839;DHT22;1427;48.510;9.060;2023-08-21T04:57:36;21.80;99.90
2839;DHT22;1427;48.510;9.060;2023-08-21T05:00:05;21.80;99.90
2839;DHT22;1427;48.510;9.060;2023-08-21T05:02:33;21.80;99.90
2839;DHT22;1427;48.510;9.060;2023-08-21T05:05:02;21.80;99.90
2839;DHT22;1427;48.510;9.060;2023-08-21T05:07:32;21.80;99.90
2839;DHT22;1427;48.510;9.060;2023-08-21T05:10:00;21.90;99.90
2839;DHT22;1427;48.510;9.060;2023-08-21T05:12:28;22.00;99.90
2839;DHT22;1427;48.510;9.060;2023-08-21T05:14:56;22.00;99.90
2839;DHT22;1427;48.510;9.060;2023-08-21T05:17:24;22.00;99.90
2839;DHT22;1427;48.510;9.060;2023-08-21T05:19:53;22.10;99.90
2839;DHT22;1427;48.510;9.060;2023-08-21T05:22:21;22.20;99.90
2839;DHT22;1427;48.510;9.060;2023-08-21T05:24:51;22.50;99.90
2839;DHT22;1427;48.510;9.060;2023-08-21T05:27:19;22.60;99.90
2839;DHT22;1427;48.510;9.060;2023-08-21T05:29:47;22.90;99.90
2839;DHT22;1427;48.510;9.060;2023-08-21T05:32:18;23.20;99.90
2839;DHT22;1427;48.510;9.060;2023-08-21T05:34:46;23.20;99.90
2839;DHT22;1427;48.510;9.060;2023-08-21T05:37:14;23.50;99.90
2839;DHT22;1427;48.510;9.060;2023-08-21T05:39:42;23.70;99.90
2839;DHT22;1427;48.510;9.060;2023-08-21T05:42:12;23.80;99.90
2839;DHT22;1427;48.510;9.060;2023-08-21T05:44:40;24.00;99.90
2839;DHT22;1427;48.510;9.060;2023-08-21T05:47:08;24.20;99.90
2839;DHT22;1427;48.510;9.060;2023-08-21T05:49:36;24.30;99.90
2839;DHT22;1427;48.510;9.060;2023-08-21T05:52:04;24.40;99.90
2839;DHT22;1427;48.510;9.060;2023-08-21T05:54:32;24.60;99.90
2839;DHT22;1427;48.510;9.060;2023-08-21T05:57:00;24.80;99.90
2839;DHT22;1427;48.510;9.060;2023-08-21T05:59:31;25.00;99.90
2839;DHT22;1427;48.510;9.060;2023-08-21T06:01:59;25.00;99.90
2839;DHT22;1427;48.510;9.060;2023-08-21T06:04:27;24.90;99.90
2839;DHT22;1427;48.510;9.060;2023-08-21T06:06:55;25.00;99.90
2839;DHT22;1427;48.510;9.060;2023-08-21T06:09:23;25.20;99.90
2839;DHT22;1427;48.510;9.060;2023-08-21T06:11:51;25.20;99.90
2839;DHT22;1427;48.510;9.060;2023-08-21T06:14:20;25.20;99.90
2839;DHT22;1427;48.510;9.060;2023-08-21T06:16:57;25.10;99.90
2839;DHT22;1427;48.510;9.060;2023-08-21T06:19:26;25.20;99.90
2839;DHT22;1427;48.510;9.060;2023-08-21T06:21:54;25.20;99.90
2839;DHT22;1427;48.510;9.060;2023-08-21T06:24:22;25.00;99.90
2839;DHT22;1427;48.510;9.060;2023-08-21T06:26:51;25.20;99.90
2839;DHT22;1427;48.510;9.060;2023-08-21T06:29:19;25.10;99.90
2839;DHT22;1427;48.510;9.060;2023-08-21T06:31:48;25.20;99.90
2839;DHT22;1427;48.510;9.060;2023-08-21T06:34:17;25.40;99.90
2839;DHT22;1427;48.510;9.060;2023-08-21T06:36:45;25.60;99.90
2839;DHT22;1427;48.510;9.060;2023-08-21T06:39:13;25.60;99.90
2839;DHT22;1427;48.510;9.060;2023-08-21T06:41:41;25.90;99.90
2839;DHT22;1427;48.510;9.060;2023-08-21T06:44:09;26.20;99.90
2839;DHT22;1427;48.510;9.060;2023-08-21T06:46:37;26.40;99.90
2839;DHT22;1427;48.510;9.060;2023-08-21T06:49:05;26.30;99.90
2839;DHT22;1427;48.510;9.060;2023-08-21T06:51:35;26.30;99.90
2839;DHT22;1427;48.510;9.060;2023-08-21T06:54:03;26.40;99.90
2839;DHT22;1427;48.510;9.060;2023-08-21T06:56:32;26.70;99.90
2839;DHT22;1427;48.510;9.060;2023-08-21T06:59:00;27.00;99.90
2839;DHT22;1427;48.510;9.060;2023-08-21T07:01:28;26.90;99.90
2839;DHT22;1427;48.510;9.060;2023-08-21T07:03:56;26.80;99.90
2839;DHT22;1427;48.510;9.060;2023-08-21T07:06:26;26.90;99.90
2839;DHT22;1427;48.510;9.060;2023-08-21T07:08:56;27.10;99.90
2839;DHT22;1427;48.510;9.060;2023-08-21T07:11:24;27.40;99.90
2839;DHT22;1427;48.510;9.060;2023-08-21T07:13:52;27.50;99.90
2839;DHT22;1427;48.510;9.060;2023-08-21T07:16:20;27.50;99.90
2839;DHT22;1427;48.510;9.060;2023-08-21T07:18:48;27.60;99.90
2839;DHT22;1427;48.510;9.060;2023-08-21T07:21:16;27.50;99.90
2839;DHT22;1427;48.510;9.060;2023-08-21T07:24:00;27.50;99.90
2839;DHT22;1427;48.510;9.060;2023-08-21T07:26:29;27.70;99.90
2839;DHT22;1427;48.510;9.060;2023-08-21T07:28:57;27.70;99.90
2839;DHT22;1427;48.510;9.060;2023-08-21T07:31:25;27.70;99.90
2839;DHT22;1427;48.510;9.060;2023-08-21T07:33:54;27.80;99.90
2839;DHT22;1427;48.510;9.060;2023-08-21T07:36:22;27.90;99.90
2839;DHT22;1427;48.510;9.060;2023-08-21T07:38:50;28.00;99.90
2839;DHT22;1427;48.510;9.060;2023-08-21T07:41:19;28.00;99.90
2839;DHT22;1427;48.510;9.060;2023-08-21T07:43:49;27.90;99.90
2839;DHT22;1427;48.510;9.060;2023-08-21T07:46:17;28.00;99.90
2839;DHT22;1427;48.510;9.060;2023-08-21T07:48:45;28.10;99.90
2839;DHT22;1427;48.510;9.060;2023-08-21T07:51:14;28.20;99.90
2839;DHT22;1427;48.510;9.060;2023-08-21T07:53:42;28.50;99.90
2839;DHT22;1427;48.510;9.060;2023-08-21T07:56:10;28.60;99.90
2839;DHT22;1427;48.510;9.060;2023-08-21T07:58:39;28.80;99.90
2839;DHT22;1427;48.510;9.060;2023-08-21T08:01:07;28.80;99.90
2839;DHT22;1427;48.510;9.060;2023-08-21T08:03:35;29.10;99.90
2839;DHT22;1427;48.510;9.060;2023-08-21T08:06:04;29.20;99.90
2839;DHT22;1427;48.510;9.060;2023-08-21T08:08:32;29.10;99.90
2839;DHT22;1427;48.510;9.060;2023-08-21T08:11:02;29.10;99.90
2839;DHT22;1427;48.510;9.060;2023-08-21T08:13:31;28.90;99.90
2839;DHT22;1427;48.510;9.060;2023-08-21T08:16:01;28.80;99.90
2839;DHT22;1427;48.510;9.060;2023-08-21T08:18:29;28.50;99.90
2839;DHT22;1427;48.510;9.060;2023-08-21T08:20:57;28.80;99.90
2839;DHT22;1427;48.510;9.060;2023-08-21T08:23:25;29.00;99.90
2839;DHT22;1427;48.510;9.060;2023-08-21T08:25:53;29.30;99.90
2839;DHT22;1427;48.510;9.060;2023-08-21T08:28:21;29.50;99.90
2839;DHT22;1427;48.510;9.060;2023-08-21T08:30:49;29.70;99.90
2839;DHT22;1427;48.510;9.060;2023-08-21T08:33:19;29.90;99.90
2839;DHT22;1427;48.510;9.060;2023-08-21T08:35:47;30.00;99.90
2839;DHT22;1427;48.510;9.060;2023-08-21T08:38:15;30.20;99.90
2839;DHT22;1427;48.510;9.060;2023-08-21T08:40:47;30.40;99.90
2839;DHT22;1427;48.510;9.060;2023-08-21T08:43:15;30.40;99.90
2839;DHT22;1427;48.510;9.060;2023-08-21T08:45:45;30.70;99.90
2839;DHT22;1427;48.510;9.060;2023-08-21T08:48:15;30.90;99.90
2839;DHT22;1427;48.510;9.060;2023-08-21T08:50:45;31.00;99.90
2839;DHT22;1427;48.510;9.060;2023-08-21T08:53:14;31.00;99.90
2839;DHT22;1427;48.510;9.060;2023-08-21T08:55:43;30.90;99.90
2839;DHT22;1427;48.510;9.060;2023-08-21T08:58:12;31.00;99.90
2839;DHT22;1427;48.510;9.060;2023-08-21T09:00:41;31.00;99.90
2839;DHT22;1427;48.510;9.060;2023-08-21T09:03:10;31.00;99.90
2839;DHT22;1427;48.510;9.060;2023-08-21T09:05:39;31.00;99.90
2839;DHT22;1427;48.510;9.060;2023-08-21T09:08:13;31.00;99.90
2839;DHT22;1427;48.510;9.060;2023-08-21T09:10:42;31.30;99.90
2839;DHT22;1427;48.510;9.060;2023-08-21T09:13:23;31.50;99.90
2839;DHT22;1427;48.510;9.060;2023-08-21T09:15:55;31.80;99.90
2839;DHT22;1427;48.510;9.060;2023-08-21T09:18:24;32.20;99.90
2839;DHT22;1427;48.510;9.060;2023-08-21T09:20:53;32.40;99.90
2839;DHT22;1427;48.510;9.060;2023-08-21T09:23:22;32.50;99.90
2839;DHT22;1427;48.510;9.060;2023-08-21T09:25:50;32.70;99.90
2839;DHT22;1427;48.510;9.060;2023-08-21T09:28:19;32.70;99.90
2839;DHT22;1427;48.510;9.060;2023-08-21T09:30:49;32.70;99.90
2839;DHT22;1427;48.510;9.060;2023-08-21T09:33:18;32.20;99.90
2839;DHT22;1427;48.510;9.060;2023-08-21T09:35:47;31.60;99.90
2839;DHT22;1427;48.510;9.060;2023-08-21T09:38:15;31.30;99.90
2839;DHT22;1427;48.510;9.060;2023-08-21T09:40:50;31.60;99.90
2839;DHT22;1427;48.510;9.060;2023-08-21T09:43:20;32.10;99.90
2839;DHT22;1427;48.510;9.060;2023-08-21T09:45:48;32.50;99.90
2839;DHT22;1427;48.510;9.060;2023-08-21T09:48:17;32.70;99.90
2839;DHT22;1427;48.510;9.060;2023-08-21T09:50:46;33.00;99.90
2839;DHT22;1427;48.510;9.060;2023-08-21T09:53:14;33.00;99.90
2839;DHT22;1427;48.510;9.060;2023-08-21T09:55:44;33.20;99.90
2839;DHT22;1427;48.510;9.060;2023-08-21T09:58:13;33.30;99.90
2839;DHT22;1427;48.510;9.060;2023-08-21T10:00:42;33.40;99.90
2839;DHT22;1427;48.510;9.060;2023-08-21T10:03:11;33.60;99.90
2839;DHT22;1427;48.510;9.060;2023-08-21T10:05:39;33.90;99.90
2839;DHT22;1427;48.510;9.060;2023-08-21T10:08:09;34.10;99.90
2839;DHT22;1427;48.510;9.060;2023-08-21T10:10:38;34.30;99.90
2839;DHT22;1427;48.510;9.060;2023-08-21T10:13:08;34.40;99.90
2839;DHT22;1427;48.510;9.060;2023-08-21T10:15:37;34.50;99.90
2839;DHT22;1427;48.510;9.060;2023-08-21T10:18:19;34.60;99.90
2839;DHT22;1427;48.510;9.060;2023-08-21T10:20:48;34.80;99.90
2839;DHT22;1427;48.510;9.060;2023-08-21T10:23:27;34.90;98.80
2839;DHT22;1427;48.510;9.060;2023-08-21T10:25:55;34.90;99.40
2839;DHT22;1427;48.510;9.060;2023-08-21T10:28:41;34.80;97.70
2839;DHT22;1427;48.510;9.060;2023-08-21T10:31:29;34.00;98.50
2839;DHT22;1427;48.510;9.060;2023-08-21T10:33:59;33.90;99.30
2839;DHT22;1427;48.510;9.060;2023-08-21T10:36:40;34.10;99.00
2839;DHT22;1427;48.510;9.060;2023-08-21T10:39:28;34.20;98.50
2839;DHT22;1427;48.510;9.060;2023-08-21T10:42:01;34.00;97.60
2839;DHT22;1427;48.510;9.060;2023-08-21T10:44:49;33.90;98.00
2839;DHT22;1427;48.510;9.060;2023-08-21T10:47:20;33.40;98.60
2839;DHT22;1427;48.510;9.060;2023-08-21T10:49:51;33.00;99.30
2839;DHT22;1427;48.510;9.060;2023-08-21T10:52:24;33.10;99.10
2839;DHT22;1427;48.510;9.060;2023-08-21T10:54:54;33.50;99.70
2839;DHT22;1427;48.510;9.060;2023-08-21T10:57:25;33.90;99.90
2839;DHT22;1427;48.510;9.060;2023-08-21T10:59:56;34.20;99.90
2839;DHT22;1427;48.510;9.060;2023-08-21T11:02:25;34.50;98.70
2839;DHT22;1427;48.510;9.060;2023-08-21T11:04:56;34.80;98.00
2839;DHT22;1427;48.510;9.060;2023-08-21T11:07:25;34.90;98.60
2839;DHT22;1427;48.510;9.060;2023-08-21T11:09:53;35.10;98.80
2839;DHT22;1427;48.510;9.060;2023-08-21T11:12:22;35.30;98.10
2839;DHT22;1427;48.510;9.060;2023-08-21T11:14:50;35.40;98.00
2839;DHT22;1427;48.510;9.060;2023-08-21T11:17:20;35.60;97.70
2839;DHT22;1427;48.510;9.060;2023-08-21T11:19:50;35.70;96.90
2839;DHT22;1427;48.510;9.060;2023-08-21T11:22:18;35.60;96.40
2839;DHT22;1427;48.510;9.060;2023-08-21T11:24:47;35.40;96.50
2839;DHT22;1427;48.510;9.060;2023-08-21T11:27:17;35.40;96.90
2839;DHT22;1427;48.510;9.060;2023-08-21T11:29:50;35.40;97.60
2839;DHT22;1427;48.510;9.060;2023-08-21T11:32:20;35.60;96.90
2839;DHT22;1427;48.510;9.060;2023-08-21T11:34:51;35.40;95.70
2839;DHT22;1427;48.510;9.060;2023-08-21T11:37:20;35.40;96.30
2839;DHT22;1427;48.510;9.060;2023-08-21T11:39:50;35.40;95.00
2839;DHT22;1427;48.510;9.060;2023-08-21T11:42:19;35.20;95.80
2839;DHT22;1427;48.510;9.060;2023-08-21T11:44:50;35.20;96.60
2839;DHT22;1427;48.510;9.060;2023-08-21T11:47:19;35.30;96.40
2839;DHT22;1427;48.510;9.060;2023-08-21T11:49:50;35.20;95.90
2839;DHT22;1427;48.510;9.060;2023-08-21T11:52:19;35.30;96.00
2839;DHT22;1427;48.510;9.060;2023-08-21T11:54:49;35.40;96.50
2839;DHT22;1427;48.510;9.060;2023-08-21T11:57:18;35.50;96.30
2839;DHT22;1427;48.510;9.060;2023-08-21T11:59:50;35.70;96.40
2839;DHT22;1427;48.510;9.060;2023-08-21T12:02:23;35.50;94.50
2839;DHT22;1427;48.510;9.060;2023-08-21T12:05:01;35.30;94.80
2839;DHT22;1427;48.510;9.060;2023-08-21T12:07:31;35.20;96.50
2839;DHT22;1427;48.510;9.060;2023-08-21T12:10:00;35.40;96.10
2839;DHT22;1427;48.510;9.060;2023-08-21T12:12:28;35.60;95.90
2839;DHT22;1427;48.510;9.060;2023-08-21T12:14:56;35.80;95.30
2839;DHT22;1427;48.510;9.060;2023-08-21T12:17:24;35.90;95.50
2839;DHT22;1427;48.510;9.060;2023-08-21T12:19:52;35.80;95.30
2839;DHT22;1427;48.510;9.060;2023-08-21T12:22:22;35.60;95.40
2839;DHT22;1427;48.510;9.060;2023-08-21T12:24:50;35.70;95.40
2839;DHT22;1427;48.510;9.060;2023-08-21T12:27:19;35.20;93.90
2839;DHT22;1427;48.510;9.060;2023-08-21T12:29:48;35.10;94.00
2839;DHT22;1427;48.510;9.060;2023-08-21T12:32:16;34.90;93.00
2839;DHT22;1427;48.510;9.060;2023-08-21T12:34:44;34.30;93.60
2839;DHT22;1427;48.510;9.060;2023-08-21T12:37:12;34.20;95.00
2839;DHT22;1427;48.510;9.060;2023-08-21T12:39:45;34.60;94.70
2839;DHT22;1427;48.510;9.060;2023-08-21T12:42:13;34.80;95.80
2839;DHT22;1427;48.510;9.060;2023-08-21T12:44:41;35.20;95.30
2839;DHT22;1427;48.510;9.060;2023-08-21T12:47:09;35.40;94.10
2839;DHT22;1427;48.510;9.060;2023-08-21T12:49:37;35.50;94.40
2839;DHT22;1427;48.510;9.060;2023-08-21T12:52:05;35.50;94.70
2839;DHT22;1427;48.510;9.060;2023-08-21T12:54:36;35.60;94.10
2839;DHT22;1427;48.510;9.060;2023-08-21T12:57:06;35.40;92.90
2839;DHT22;1427;48.510;9.060;2023-08-21T12:59:34;35.20;93.60
2839;DHT22;1427;48.510;9.060;2023-08-21T13:02:03;35.10;93.20
2839;DHT22;1427;48.510;9.060;2023-08-21T13:04:33;34.80;93.20
2839;DHT22;1427;48.510;9.060;2023-08-21T13:07:01;34.40;92.90
2839;DHT22;1427;48.510;9.060;2023-08-21T13:09:30;34.30;93.20
2839;DHT22;1427;48.510;9.060;2023-08-21T13:11:58;34.30;92.80
2839;DHT22;1427;48.510;9.060;2023-08-21T13:14:27;34.20;92.80
2839;DHT22;1427;48.510;9.060;2023-08-21T13:16:58;34.10;93.60
2839;DHT22;1427;48.510;9.060;2023-08-21T13:19:26;34.10;93.60
2839;DHT22;1427;48.510;9.060;2023-08-21T13:21:54;33.90;93.60
2839;DHT22;1427;48.510;9.060;2023-08-21T13:24:22;34.00;93.90
2839;DHT22;1427;48.510;9.060;2023-08-21T13:26:50;34.10;93.80
2839;DHT22;1427;48.510;9.060;2023-08-21T13:29:18;34.30;94.60
2839;DHT22;1427;48.510;9.060;2023-08-21T13:31:48;34.60;94.20
2839;DHT22;1427;48.510;9.060;2023-08-21T13:34:16;34.90;94.00
2839;DHT22;1427;48.510;9.060;2023-08-21T13:36:44;35.00;92.90
2839;DHT22;1427;48.510;9.060;2023-08-21T13:39:12;35.10;93.10
2839;DHT22;1427;48.510;9.060;2023-08-21T13:41:42;35.20;93.40
2839;DHT22;1427;48.510;9.060;2023-08-21T13:44:10;35.40;93.40
2839;DHT22;1427;48.510;9.060;2023-08-21T13:46:38;35.40;93.10
2839;DHT22;1427;48.510;9.060;2023-08-21T13:49:07;35.50;93.70
2839;DHT22;1427;48.510;9.060;2023-08-21T13:51:36;35.50;93.30
2839;DHT22;1427;48.510;9.060;2023-08-21T13:54:04;35.50;93.10
2839;DHT22;1427;48.510;9.060;2023-08-21T13:56:32;35.40;92.40
2839;DHT22;1427;48.510;9.060;2023-08-21T13:59:00;35.40;92.90
2839;DHT22;1427;48.510;9.060;2023-08-21T14:01:29;35.50;93.10
2839;DHT22;1427;48.510;9.060;2023-08-21T14:03:57;35.60;92.80
2839;DHT22;1427;48.510;9.060;2023-08-21T14:06:27;35.60;91.70
2839;DHT22;1427;48.510;9.060;2023-08-21T14:08:56;35.00;92.00
2839;DHT22;1427;48.510;9.060;2023-08-21T14:11:24;34.80;92.00
2839;DHT22;1427;48.510;9.060;2023-08-21T14:13:52;35.00;92.90
2839;DHT22;1427;48.510;9.060;2023-08-21T14:16:20;35.10;92.10
2839;DHT22;1427;48.510;9.060;2023-08-21T14:18:48;35.20;93.00
2839;DHT22;1427;48.510;9.060;2023-08-21T14:21:16;35.30;93.60
2839;DHT22;1427;48.510;9.060;2023-08-21T14:23:46;35.40;91.70
2839;DHT22;1427;48.510;9.060;2023-08-21T14:26:14;35.40;93.00
2839;DHT22;1427;48.510;9.060;2023-08-21T14:28:42;35.30;91.70
2839;DHT22;1427;48.510;9.060;2023-08-21T14:31:16;35.20;92.80
2839;DHT22;1427;48.510;9.060;2023-08-21T14:33:44;35.20;92.70
2839;DHT22;1427;48.510;9.060;2023-08-21T14:36:12;35.30;93.10
2839;DHT22;1427;48.510;9.060;2023-08-21T14:38:40;35.40;92.90
2839;DHT22;1427;48.510;9.060;2023-08-21T14:41:09;35.40;92.10
2839;DHT22;1427;48.510;9.060;2023-08-21T14:43:37;35.40;93.00
2839;DHT22;1427;48.510;9.060;2023-08-21T14:46:06;35.40;92.30
2839;DHT22;1427;48.510;9.060;2023-08-21T14:48:34;35.40;92.30
2839;DHT22;1427;48.510;9.060;2023-08-21T14:51:02;35.40;92.70
2839;DHT22;1427;48.510;9.060;2023-08-21T14:53:30;35.40;92.30
2839;DHT22;1427;48.510;9.060;2023-08-21T14:55:58;35.40;91.20
2839;DHT22;1427;48.510;9.060;2023-08-21T14:58:27;35.20;92.10
2839;DHT22;1427;48.510;9.060;2023-08-21T15:00:56;35.30;92.10
2839;DHT22;1427;48.510;9.060;2023-08-21T15:03:24;35.40;92.40
2839;DHT22;1427;48.510;9.060;2023-08-21T15:05:52;35.40;92.50
2839;DHT22;1427;48.510;9.060;2023-08-21T15:08:20;35.40;92.40
2839;DHT22;1427;48.510;9.060;2023-08-21T15:10:48;35.40;92.00
2839;DHT22;1427;48.510;9.060;2023-08-21T15:13:16;35.40;92.30
2839;DHT22;1427;48.510;9.060;2023-08-21T15:15:45;35.40;92.30
2839;DHT22;1427;48.510;9.060;2023-08-21T15:18:13;35.20;92.60
2839;DHT22;1427;48.510;9.060;2023-08-21T15:20:41;35.20;92.90
2839;DHT22;1427;48.510;9.060;2023-08-21T15:23:09;35.10;92.20
2839;DHT22;1427;48.510;9.060;2023-08-21T15:25:37;35.10;92.80
2839;DHT22;1427;48.510;9.060;2023-08-21T15:28:06;35.00;92.40
2839;DHT22;1427;48.510;9.060;2023-08-21T15:30:34;34.80;92.50
2839;DHT22;1427;48.510;9.060;2023-08-21T15:33:04;34.70;92.70
2839;DHT22;1427;48.510;9.060;2023-08-21T15:35:32;34.70;92.90
2839;DHT22;1427;48.510;9.060;2023-08-21T15:38:00;34.70;93.40
2839;DHT22;1427;48.510;9.060;2023-08-21T15:40:30;34.60;93.00
2839;DHT22;1427;48.510;9.060;2023-08-21T15:43:00;34.50;93.20
2839;DHT22;1427;48.510;9.060;2023-08-21T15:45:29;34.50;92.90
2839;DHT22;1427;48.510;9.060;2023-08-21T15:47:57;34.40;93.50
2839;DHT22;1427;48.510;9.060;2023-08-21T15:50:27;34.40;93.50
2839;DHT22;1427;48.510;9.060;2023-08-21T15:52:55;34.40;93.30
2839;DHT22;1427;48.510;9.060;2023-08-21T15:55:23;34.40;93.60
2839;DHT22;1427;48.510;9.060;2023-08-21T15:57:51;34.30;93.50
2839;DHT22;1427;48.510;9.060;2023-08-21T16:00:19;34.20;93.30
2839;DHT22;1427;48.510;9.060;2023-08-21T16:02:48;34.10;93.50
2839;DHT22;1427;48.510;9.060;2023-08-21T16:05:17;33.90;93.50
2839;DHT22;1427;48.510;9.060;2023-08-21T16:07:46;33.90;93.60
2839;DHT22;1427;48.510;9.060;2023-08-21T16:10:14;33.90;93.60
2839;DHT22;1427;48.510;9.060;2023-08-21T16:12:43;33.90;93.50